Time;durP1;ratioP1;P1;durP2;ratioP2;P2;SDS_P1;SDS_P2;PMS_P1;PMS_P2;Temp;Humidity;BMP_temperature;BMP_pressure;BME280_temperature;BME280_humidity;BME280_pressure;Samples;Min_cycle;Max_cycle;Signal;HPM_P1;HPM_P2
2021/06/30 00:01:00;;;;;;;2.40;1.90;;;16.10;99.90;;;;;;4941545;29;21206;-95
2021/06/30 00:03:30;;;;;;;10.70;2.10;;;16.00;99.90;;;;;;4949114;29;20641;-96
2021/06/30 00:06:04;;;;;;;4.87;2.80;;;15.90;99.90;;;;;;4951557;29;20635;-96
2021/06/30 00:08:33;;;;;;;3.90;1.77;;;15.80;99.90;;;;;;4944618;29;20721;-96
2021/06/30 00:11:00;;;;;;;2.83;1.60;;;15.80;99.90;;;;;;4940125;29;20678;-96
2021/06/30 00:13:27;;;;;;;3.63;1.80;;;15.80;99.90;;;;;;4941196;29;20743;-96
2021/06/30 00:15:55;;;;;;;4.80;2.90;;;15.80;99.90;;;;;;4940310;29;20726;-95
2021/06/30 00:18:23;;;;;;;2.47;2.27;;;15.80;99.90;;;;;;4943599;29;20663;-95
2021/06/30 00:20:50;;;;;;;4.77;2.50;;;15.80;99.90;;;;;;4951552;29;21140;-95
2021/06/30 01:05:58;;;;;;;4.40;2.90;;;16.00;99.90;;;;;;4971770;28;20676;-96
2021/06/30 02:58:44;;;;;;;0.40;0.40;;;15.20;99.90;;;;;;4952051;29;20690;-96
2021/06/30 03:04:01;;;;;;;2.00;0.50;;;15.20;99.90;;;;;;4940815;29;20628;-96
2021/06/30 03:06:28;;;;;;;0.90;0.50;;;15.10;99.90;;;;;;4941850;29;20683;-95
2021/06/30 03:08:55;;;;;;;1.30;0.57;;;15.10;99.90;;;;;;4940235;29;21051;-95
2021/06/30 03:11:26;;;;;;;0.50;0.40;;;15.10;99.90;;;;;;4935934;29;20639;-95
2021/06/30 03:13:53;;;;;;;0.60;0.43;;;15.00;99.90;;;;;;4936306;29;20674;-94
2021/06/30 03:16:32;;;;;;;1.30;0.40;;;15.00;99.90;;;;;;4941396;28;21237;-95
2021/06/30 03:18:59;;;;;;;0.40;0.30;;;15.00;99.90;;;;;;4935009;29;20703;-95
2021/06/30 03:21:25;;;;;;;0.73;0.30;;;14.80;99.90;;;;;;4931441;29;20642;-95
2021/06/30 03:23:52;;;;;;;0.50;0.40;;;14.80;99.90;;;;;;4944373;29;20725;-93
2021/06/30 03:26:19;;;;;;;0.90;0.40;;;15.00;99.90;;;;;;4935817;29;20730;-94
2021/06/30 03:28:46;;;;;;;3.30;0.57;;;15.00;99.90;;;;;;4933213;29;20639;-95
2021/06/30 03:31:13;;;;;;;1.53;0.57;;;15.00;99.90;;;;;;4946702;29;20651;-95
2021/06/30 03:33:44;;;;;;;2.80;0.47;;;15.00;99.90;;;;;;4940461;29;20631;-94
2021/06/30 03:36:11;;;;;;;1.50;0.57;;;14.90;99.90;;;;;;4955069;28;20727;-96
2021/06/30 03:38:38;;;;;;;4.30;0.50;;;14.90;99.90;;;;;;4943921;29;20655;-95
2021/06/30 03:41:04;;;;;;;2.70;0.40;;;14.80;99.90;;;;;;4931538;29;20635;-94
2021/06/30 03:43:31;;;;;;;1.83;0.40;;;14.90;99.90;;;;;;4926965;28;20666;-95
2021/06/30 03:45:58;;;;;;;2.10;0.43;;;14.80;99.90;;;;;;4929862;29;20637;-95
2021/06/30 03:48:25;;;;;;;0.50;0.30;;;14.80;99.90;;;;;;4934212;29;20649;-96
2021/06/30 03:50:53;;;;;;;0.60;0.40;;;14.60;99.90;;;;;;4936220;29;20647;-96
2021/06/30 03:53:20;;;;;;;4.70;0.40;;;14.70;99.90;;;;;;4933879;29;20763;-95
2021/06/30 03:55:47;;;;;;;4.20;0.53;;;14.70;99.90;;;;;;4929524;29;20631;-93
2021/06/30 03:58:14;;;;;;;1.20;0.70;;;14.80;99.90;;;;;;4924306;29;20668;-95
2021/06/30 04:00:44;;;;;;;0.97;0.50;;;14.70;99.90;;;;;;4927548;29;20627;-95
2021/06/30 04:03:20;;;;;;;3.67;0.80;;;14.70;99.90;;;;;;4928856;29;21221;-95
2021/06/30 04:05:53;;;;;;;0.90;0.40;;;14.70;99.90;;;;;;4929249;29;20642;-94
2021/06/30 04:08:20;;;;;;;2.07;0.43;;;14.70;99.90;;;;;;4932687;29;20657;-96
2021/06/30 04:10:47;;;;;;;6.57;5.20;;;14.70;99.90;;;;;;4934556;29;20635;-96
2021/06/30 04:13:16;;;;;;;3.00;0.83;;;14.70;99.90;;;;;;4948584;29;20699;-96
2021/06/30 04:15:44;;;;;;;2.40;0.70;;;14.60;99.90;;;;;;4950231;29;20709;-95
2021/06/30 04:18:12;;;;;;;0.50;0.33;;;14.60;99.90;;;;;;4941546;29;20664;-96
2021/06/30 04:20:42;;;;;;;1.57;0.50;;;14.60;99.90;;;;;;4948826;29;21181;-96
2021/06/30 04:23:11;;;;;;;0.70;0.53;;;14.60;99.90;;;;;;4939580;29;20737;-96
2021/06/30 04:25:38;;;;;;;1.73;0.50;;;14.60;99.90;;;;;;4933763;29;20638;-96
2021/06/30 04:28:07;;;;;;;0.47;0.47;;;14.60;99.90;;;;;;4941025;29;20707;-95
2021/06/30 04:30:43;;;;;;;1.47;0.60;;;14.60;99.90;;;;;;4955823;28;20683;-97
2021/06/30 04:33:12;;;;;;;0.40;0.40;;;14.70;99.90;;;;;;4945893;29;20662;-91
2021/06/30 04:35:38;;;;;;;3.00;0.40;;;14.60;99.90;;;;;;4926715;29;20662;-91
2021/06/30 04:38:06;;;;;;;1.37;0.67;;;14.70;99.90;;;;;;4927243;29;20650;-91
2021/06/30 04:40:34;;;;;;;0.93;0.43;;;14.60;99.90;;;;;;4927988;29;20639;-91
2021/06/30 04:43:01;;;;;;;2.50;0.50;;;14.70;99.90;;;;;;4929483;29;20681;-92
2021/06/30 04:45:29;;;;;;;1.70;1.00;;;14.80;99.90;;;;;;4933428;29;20646;-93
2021/06/30 04:47:56;;;;;;;0.50;0.50;;;14.80;99.90;;;;;;4930049;29;20618;-93
2021/06/30 04:50:23;;;;;;;1.37;0.47;;;14.80;99.90;;;;;;4931343;29;20646;-93
2021/06/30 04:52:52;;;;;;;0.60;0.60;;;14.90;99.90;;;;;;4932700;29;20662;-93
2021/06/30 04:55:23;;;;;;;1.57;0.60;;;15.10;99.90;;;;;;4935851;29;20601;-91
2021/06/30 04:57:55;;;;;;;2.93;0.67;;;15.20;99.90;;;;;;4938439;29;20653;-93
2021/06/30 05:00:21;;;;;;;0.57;0.50;;;15.30;99.90;;;;;;4939851;29;20714;-93
2021/06/30 05:02:48;;;;;;;0.67;0.60;;;15.50;99.90;;;;;;4940325;29;20651;-92
2021/06/30 05:05:18;;;;;;;0.77;0.73;;;15.30;99.90;;;;;;4932266;29;21189;-92
2021/06/30 05:07:49;;;;;;;1.50;0.40;;;15.30;99.90;;;;;;4930932;29;20698;-93
2021/06/30 05:10:18;;;;;;;1.23;0.50;;;15.30;99.90;;;;;;4947336;28;20631;-93
2021/06/30 05:12:47;;;;;;;0.73;0.40;;;15.40;99.90;;;;;;4931373;29;20672;-93
2021/06/30 05:15:15;;;;;;;3.40;0.60;;;15.50;99.90;;;;;;4932053;29;21606;-93
2021/06/30 05:17:43;;;;;;;3.13;0.60;;;15.60;99.90;;;;;;4929591;29;20639;-94
2021/06/30 05:20:12;;;;;;;0.90;0.80;;;15.60;99.90;;;;;;4932459;29;20715;-90
2021/06/30 05:22:40;;;;;;;1.33;0.60;;;15.60;99.90;;;;;;4929965;29;20663;-91
2021/06/30 05:25:11;;;;;;;1.77;0.60;;;15.70;99.90;;;;;;4929345;29;20623;-92
2021/06/30 05:27:39;;;;;;;7.30;1.00;;;15.70;99.90;;;;;;4927696;29;20646;-93
2021/06/30 05:30:07;;;;;;;3.77;0.73;;;15.70;99.90;;;;;;4930165;29;20634;-93
2021/06/30 05:32:35;;;;;;;1.53;0.70;;;15.70;99.90;;;;;;4932507;29;20745;-92
2021/06/30 05:35:02;;;;;;;1.43;0.40;;;15.90;99.90;;;;;;4934750;29;20677;-93
2021/06/30 05:37:29;;;;;;;0.97;0.70;;;15.90;99.90;;;;;;4932444;29;20659;-93
2021/06/30 05:39:57;;;;;;;0.70;0.50;;;15.90;99.90;;;;;;4936048;29;21301;-93
2021/06/30 05:42:23;;;;;;;0.80;0.70;;;15.90;99.90;;;;;;4932377;29;21296;-92
2021/06/30 05:44:50;;;;;;;1.03;0.60;;;16.00;99.90;;;;;;4931158;29;20643;-92
2021/06/30 05:47:17;;;;;;;0.97;0.70;;;16.00;99.90;;;;;;4931611;29;21214;-92
2021/06/30 05:49:45;;;;;;;1.07;0.57;;;16.00;99.90;;;;;;4932021;29;21232;-93
2021/06/30 05:52:12;;;;;;;0.70;0.60;;;16.00;99.90;;;;;;4931583;29;20634;-93
2021/06/30 05:54:39;;;;;;;1.37;0.50;;;16.10;99.90;;;;;;4931035;29;20678;-92
2021/06/30 05:57:06;;;;;;;1.27;0.50;;;16.10;99.90;;;;;;4929292;29;20999;-93
2021/06/30 05:59:33;;;;;;;0.57;0.50;;;16.20;99.90;;;;;;4932159;29;20774;-92
2021/06/30 06:02:00;;;;;;;1.37;0.57;;;16.20;99.90;;;;;;4931524;29;20993;-94
2021/06/30 06:04:27;;;;;;;1.07;0.67;;;16.20;99.90;;;;;;4928194;29;20658;-93
2021/06/30 06:06:55;;;;;;;0.50;0.50;;;16.20;99.90;;;;;;4930143;29;20773;-93
2021/06/30 06:09:24;;;;;;;1.73;0.50;;;16.00;99.90;;;;;;4928418;29;20634;-94
2021/06/30 06:11:51;;;;;;;2.40;0.70;;;16.00;99.90;;;;;;4929759;29;20982;-92
2021/06/30 06:14:18;;;;;;;2.23;0.40;;;16.10;99.90;;;;;;4932582;29;20702;-92
2021/06/30 06:16:45;;;;;;;1.20;0.67;;;16.20;99.90;;;;;;4931991;28;20671;-93
2021/06/30 06:19:21;;;;;;;0.40;0.37;;;16.20;99.90;;;;;;4931127;29;21566;-92
2021/06/30 06:21:48;;;;;;;0.73;0.50;;;16.20;99.90;;;;;;4935778;29;20643;-92
2021/06/30 06:24:16;;;;;;;1.23;0.60;;;16.40;99.90;;;;;;4928517;29;20644;-92
2021/06/30 06:26:47;;;;;;;0.73;0.50;;;16.40;99.90;;;;;;4936542;29;20654;-94
2021/06/30 06:29:13;;;;;;;1.80;0.60;;;16.40;99.90;;;;;;4930376;29;20635;-93
2021/06/30 06:31:41;;;;;;;0.57;0.57;;;16.40;99.90;;;;;;4944625;29;20723;-90
2021/06/30 06:34:08;;;;;;;0.83;0.50;;;16.40;99.90;;;;;;4935991;29;20730;-89
2021/06/30 06:36:35;;;;;;;0.97;0.50;;;16.60;99.90;;;;;;4922743;29;20631;-89
2021/06/30 06:39:04;;;;;;;1.90;0.40;;;16.60;99.90;;;;;;4930156;29;21652;-91
2021/06/30 06:41:32;;;;;;;1.10;0.87;;;16.80;99.90;;;;;;4934668;28;20725;-89
2021/06/30 06:43:59;;;;;;;1.30;0.47;;;16.80;99.90;;;;;;4930767;29;20678;-90
2021/06/30 06:46:26;;;;;;;0.50;0.50;;;16.90;99.90;;;;;;4924587;29;20648;-90
2021/06/30 06:48:53;;;;;;;0.70;0.40;;;16.90;99.90;;;;;;4926239;29;20774;-90
2021/06/30 06:51:20;;;;;;;1.20;0.40;;;16.90;99.90;;;;;;4927700;29;20640;-90
2021/06/30 06:53:47;;;;;;;2.00;0.50;;;17.20;99.90;;;;;;4927767;29;20710;-91
2021/06/30 06:56:18;;;;;;;1.97;0.50;;;17.30;99.90;;;;;;4926415;29;21017;-90
2021/06/30 06:58:47;;;;;;;0.60;0.50;;;17.40;99.90;;;;;;4925359;29;20643;-90
2021/06/30 07:01:13;;;;;;;0.50;0.33;;;17.50;99.90;;;;;;4928044;29;20742;-91
2021/06/30 07:03:40;;;;;;;0.50;0.50;;;17.40;99.90;;;;;;4923832;29;20679;-90
2021/06/30 07:06:07;;;;;;;2.10;0.60;;;17.50;99.90;;;;;;4923817;29;20991;-91
2021/06/30 07:08:34;;;;;;;0.70;0.57;;;17.40;99.90;;;;;;4923140;29;20747;-91
2021/06/30 07:11:01;;;;;;;1.27;0.37;;;17.40;99.90;;;;;;4925810;29;20638;-91
2021/06/30 07:13:28;;;;;;;1.00;0.77;;;17.70;99.90;;;;;;4923362;29;21492;-91
2021/06/30 07:15:56;;;;;;;1.30;0.40;;;17.80;99.90;;;;;;4925564;29;20655;-90
2021/06/30 07:18:23;;;;;;;2.63;0.40;;;18.00;99.90;;;;;;4925799;29;20645;-90
2021/06/30 07:20:51;;;;;;;1.77;0.37;;;18.10;99.90;;;;;;4924025;29;20668;-91
2021/06/30 07:23:18;;;;;;;0.90;0.47;;;18.20;99.90;;;;;;4923754;29;20703;-91
2021/06/30 07:25:45;;;;;;;0.60;0.43;;;18.40;99.90;;;;;;4929146;29;20653;-90
2021/06/30 07:28:12;;;;;;;1.87;0.50;;;18.70;99.90;;;;;;4927208;29;21220;-91
2021/06/30 07:30:39;;;;;;;0.50;0.50;;;18.50;99.90;;;;;;4925386;29;20639;-90
2021/06/30 07:33:08;;;;;;;0.60;0.30;;;18.60;99.90;;;;;;4926348;29;20763;-91
2021/06/30 07:35:35;;;;;;;1.10;0.60;;;18.60;99.90;;;;;;4926618;29;20631;-89
2021/06/30 07:38:02;;;;;;;0.90;0.53;;;18.90;99.90;;;;;;4924805;29;20639;-90
2021/06/30 07:40:29;;;;;;;0.70;0.60;;;18.90;99.90;;;;;;4928516;29;20663;-90
2021/06/30 07:42:56;;;;;;;0.70;0.50;;;19.10;99.90;;;;;;4927582;29;21292;-90
2021/06/30 07:45:23;;;;;;;1.23;0.67;;;19.00;99.90;;;;;;4925405;29;20632;-91
2021/06/30 07:47:50;;;;;;;0.67;0.47;;;18.70;99.90;;;;;;4921002;29;20635;-90
2021/06/30 07:50:19;;;;;;;0.70;0.40;;;19.00;99.90;;;;;;4923425;29;20815;-90
2021/06/30 07:52:48;;;;;;;0.90;0.50;;;19.20;99.90;;;;;;4926637;29;20679;-89
2021/06/30 07:55:16;;;;;;;0.50;0.40;;;19.00;99.90;;;;;;4926365;29;20812;-90
2021/06/30 07:57:43;;;;;;;1.37;0.80;;;19.10;99.90;;;;;;4924670;29;21636;-90
2021/06/30 08:00:11;;;;;;;1.57;0.47;;;19.20;99.90;;;;;;4926127;29;20662;-90
2021/06/30 08:02:37;;;;;;;0.80;0.63;;;19.50;99.90;;;;;;4925994;29;20686;-90
2021/06/30 08:05:05;;;;;;;0.90;0.50;;;19.50;99.90;;;;;;4923800;29;20648;-90
2021/06/30 08:07:33;;;;;;;1.57;0.90;;;19.40;99.90;;;;;;4925361;29;20635;-90
2021/06/30 08:10:00;;;;;;;0.87;0.70;;;19.40;99.90;;;;;;4927050;29;20631;-90
2021/06/30 08:12:27;;;;;;;0.53;0.40;;;19.50;99.90;;;;;;4927875;29;20671;-91
2021/06/30 08:14:54;;;;;;;0.50;0.40;;;19.60;99.90;;;;;;4928195;29;20642;-90
2021/06/30 08:17:21;;;;;;;0.50;0.40;;;19.60;99.90;;;;;;4927130;29;20661;-90
2021/06/30 08:19:48;;;;;;;0.50;0.30;;;19.70;99.90;;;;;;4932693;29;20703;-92
2021/06/30 08:22:15;;;;;;;2.33;0.50;;;19.70;99.90;;;;;;4930896;29;20661;-89
2021/06/30 08:24:45;;;;;;;1.07;0.50;;;19.50;99.90;;;;;;4933312;29;21153;-93
2021/06/30 08:27:13;;;;;;;1.07;0.30;;;19.30;99.90;;;;;;4933156;29;20726;-94
2021/06/30 08:29:43;;;;;;;0.60;0.50;;;19.10;99.90;;;;;;4929312;29;20659;-90
2021/06/30 08:32:10;;;;;;;0.60;0.60;;;18.90;99.90;;;;;;4931442;29;20696;-94
2021/06/30 08:34:37;;;;;;;0.80;0.70;;;18.80;99.90;;;;;;4935983;29;21196;-91
2021/06/30 08:37:07;;;;;;;1.10;0.77;;;18.70;99.90;;;;;;4933900;29;20639;-91
2021/06/30 08:39:34;;;;;;;1.10;0.57;;;18.70;99.90;;;;;;4933084;29;20654;-92
2021/06/30 08:42:03;;;;;;;1.00;0.90;;;18.70;99.90;;;;;;4932765;29;20659;-93
2021/06/30 08:44:32;;;;;;;0.73;0.57;;;18.90;99.90;;;;;;4932929;29;20638;-92
2021/06/30 08:46:58;;;;;;;1.30;0.77;;;18.80;99.90;;;;;;4931744;29;20691;-93
2021/06/30 08:49:27;;;;;;;0.73;0.50;;;19.10;99.90;;;;;;4932942;29;20642;-92
2021/06/30 08:51:55;;;;;;;0.40;0.30;;;19.20;99.90;;;;;;4933065;29;20739;-94
2021/06/30 08:54:23;;;;;;;1.47;0.50;;;19.20;99.90;;;;;;4931656;29;20644;-93
2021/06/30 08:56:51;;;;;;;0.60;0.30;;;18.90;99.90;;;;;;4931186;29;20667;-93
2021/06/30 08:59:19;;;;;;;0.50;0.40;;;18.90;99.90;;;;;;4935654;29;20650;-92
2021/06/30 09:01:48;;;;;;;0.50;0.40;;;19.10;99.90;;;;;;4933511;29;21434;-92
2021/06/30 09:04:14;;;;;;;0.40;0.40;;;19.00;99.90;;;;;;4932534;29;20647;-92
2021/06/30 09:06:42;;;;;;;0.50;0.40;;;19.30;99.90;;;;;;4932077;29;20719;-93
2021/06/30 09:09:13;;;;;;;0.60;0.40;;;19.40;99.90;;;;;;4932666;29;20647;-93
2021/06/30 09:11:43;;;;;;;0.90;0.40;;;19.30;99.90;;;;;;4933171;29;20651;-94
2021/06/30 09:14:24;;;;;;;1.80;0.50;;;19.40;99.90;;;;;;4931098;29;20637;-93
2021/06/30 09:17:19;;;;;;;1.77;0.50;;;19.60;99.90;;;;;;4932706;29;20679;-94
2021/06/30 09:20:11;;;;;;;0.80;0.60;;;19.70;99.90;;;;;;4933586;29;20639;-93
2021/06/30 09:22:50;;;;;;;0.50;0.30;;;19.80;99.90;;;;;;4930276;29;21292;-93
2021/06/30 09:25:35;;;;;;;0.60;0.40;;;19.80;99.90;;;;;;4931608;29;20698;-93
2021/06/30 09:28:29;;;;;;;0.50;0.37;;;19.70;99.90;;;;;;4929695;29;20631;-93
2021/06/30 09:31:23;;;;;;;1.70;0.60;;;19.30;99.90;;;;;;4929415;29;20626;-93
2021/06/30 09:34:03;;;;;;;0.50;0.40;;;19.20;99.90;;;;;;4931020;29;20774;-94
2021/06/30 09:37:01;;;;;;;1.33;0.80;;;19.00;99.90;;;;;;4932579;29;20706;-93
2021/06/30 09:45:17;;;;;;;0.90;0.57;;;19.50;99.90;;;;;;4927863;29;20746;-92
2021/06/30 09:47:51;;;;;;;1.27;0.70;;;19.50;99.90;;;;;;4927015;29;21034;-93
2021/06/30 09:50:36;;;;;;;0.87;0.70;;;19.20;99.90;;;;;;4931369;29;21192;-93
2021/06/30 09:53:04;;;;;;;0.83;0.40;;;18.90;99.90;;;;;;4932988;29;20667;-92
2021/06/30 09:55:34;;;;;;;0.93;0.57;;;18.80;99.90;;;;;;4931219;29;20730;-92
2021/06/30 09:58:02;;;;;;;1.00;0.73;;;18.70;99.90;;;;;;4929059;29;20647;-93
2021/06/30 10:00:30;;;;;;;0.60;0.50;;;18.70;99.90;;;;;;4931947;29;20667;-93
2021/06/30 10:03:01;;;;;;;2.13;0.50;;;18.70;99.90;;;;;;4929273;29;21473;-91
2021/06/30 10:05:31;;;;;;;0.50;0.40;;;18.70;99.90;;;;;;4929371;29;21209;-91
2021/06/30 10:08:13;;;;;;;0.83;0.50;;;18.70;99.90;;;;;;4926379;29;20643;-91
2021/06/30 10:10:44;;;;;;;0.50;0.33;;;18.90;99.90;;;;;;4929895;29;20974;-91
2021/06/30 10:13:11;;;;;;;0.70;0.47;;;19.00;99.90;;;;;;4929313;29;20667;-90
2021/06/30 10:15:41;;;;;;;0.73;0.60;;;18.90;99.90;;;;;;4930943;29;20635;-91
2021/06/30 10:18:10;;;;;;;1.20;0.50;;;18.90;99.90;;;;;;4929576;29;20654;-92
2021/06/30 10:20:41;;;;;;;0.60;0.40;;;19.10;99.90;;;;;;4930684;29;20628;-91
2021/06/30 10:23:10;;;;;;;0.50;0.33;;;19.20;99.90;;;;;;4929503;29;21237;-93
2021/06/30 10:25:38;;;;;;;0.70;0.47;;;19.30;99.90;;;;;;4932576;29;20725;-92
2021/06/30 10:28:08;;;;;;;0.60;0.40;;;19.10;99.90;;;;;;4939162;29;20642;-94
2021/06/30 10:30:40;;;;;;;1.03;0.40;;;19.40;99.90;;;;;;4932695;29;20642;-95
2021/06/30 10:33:08;;;;;;;0.83;0.70;;;19.70;99.90;;;;;;4927513;29;20674;-94
2021/06/30 10:35:46;;;;;;;1.60;0.30;;;19.90;99.90;;;;;;4931360;29;20648;-93
2021/06/30 10:38:13;;;;;;;0.50;0.30;;;19.80;99.90;;;;;;4930024;29;20695;-92
2021/06/30 10:40:40;;;;;;;0.73;0.53;;;19.60;99.90;;;;;;4928629;29;20659;-94
2021/06/30 10:43:13;;;;;;;1.87;0.53;;;19.70;99.90;;;;;;4929263;29;20688;-94
2021/06/30 10:45:41;;;;;;;0.70;0.50;;;19.80;99.90;;;;;;4930536;29;20805;-95
2021/06/30 10:48:12;;;;;;;0.90;0.50;;;19.60;99.90;;;;;;4929277;29;20635;-94
2021/06/30 10:50:42;;;;;;;1.20;0.40;;;19.80;99.90;;;;;;4931642;29;21177;-94
2021/06/30 10:53:38;;;;;;;0.70;0.40;;;20.00;99.90;;;;;;4926096;29;20722;-94
2021/06/30 10:56:12;;;;;;;0.40;0.33;;;20.10;99.90;;;;;;4932148;29;20631;-93
2021/06/30 10:58:43;;;;;;;1.00;0.50;;;20.20;99.90;;;;;;4932686;29;20706;-94
2021/06/30 11:01:19;;;;;;;0.40;0.30;;;19.90;99.90;;;;;;4931989;29;21000;-95
2021/06/30 11:03:50;;;;;;;0.47;0.40;;;19.70;99.90;;;;;;4946911;29;20670;-94
2021/06/30 11:06:29;;;;;;;0.50;0.40;;;19.90;99.90;;;;;;4948497;29;20647;-94
2021/06/30 11:08:59;;;;;;;1.00;0.40;;;20.00;99.90;;;;;;4935482;29;20635;-94
2021/06/30 11:11:51;;;;;;;0.40;0.30;;;20.00;99.90;;;;;;4930128;29;20645;-93
2021/06/30 11:14:23;;;;;;;0.60;0.60;;;20.00;99.90;;;;;;4930536;29;21202;-94
2021/06/30 11:16:55;;;;;;;3.07;0.57;;;19.90;99.90;;;;;;4932877;29;20682;-94
2021/06/30 11:19:47;;;;;;;1.63;0.40;;;19.70;99.90;;;;;;4931680;29;20651;-93
2021/06/30 11:22:37;;;;;;;0.90;0.40;;;19.30;99.90;;;;;;4930324;29;20679;-93
2021/06/30 11:25:25;;;;;;;0.80;0.50;;;19.20;99.90;;;;;;4928144;29;20624;-95
2021/06/30 11:27:53;;;;;;;1.60;0.60;;;19.20;99.90;;;;;;4930618;29;20628;-95
2021/06/30 11:30:37;;;;;;;0.63;0.60;;;19.10;99.90;;;;;;4931649;29;20742;-94
2021/06/30 11:33:16;;;;;;;1.17;0.50;;;18.90;99.90;;;;;;4931414;29;20666;-94
2021/06/30 11:35:46;;;;;;;1.00;1.00;;;18.70;99.90;;;;;;4929321;29;20766;-93
2021/06/30 11:38:17;;;;;;;1.73;0.70;;;18.70;99.90;;;;;;4934091;29;20682;-95
2021/06/30 11:41:04;;;;;;;1.23;0.60;;;18.70;99.90;;;;;;4926951;29;20655;-95
2021/06/30 11:43:37;;;;;;;2.00;0.60;;;18.80;99.90;;;;;;4934937;29;20675;-94
2021/06/30 11:46:06;;;;;;;1.73;1.63;;;19.50;99.90;;;;;;4933878;29;21575;-94
2021/06/30 11:48:35;;;;;;;0.80;0.40;;;20.20;99.90;;;;;;4932158;29;20639;-95
2021/06/30 11:51:10;;;;;;;0.73;0.47;;;21.00;99.90;;;;;;4928995;29;20627;-94
2021/06/30 11:53:45;;;;;;;1.17;0.53;;;21.70;99.90;;;;;;4934651;29;20669;-93
2021/06/30 11:56:35;;;;;;;1.40;0.50;;;21.20;99.90;;;;;;4936603;29;20645;-94
2021/06/30 11:59:06;;;;;;;1.80;0.40;;;21.30;99.90;;;;;;4935145;29;20606;-96
2021/06/30 12:01:38;;;;;;;0.70;0.50;;;21.10;99.90;;;;;;4938742;29;20672;-95
2021/06/30 12:04:20;;;;;;;1.03;0.80;;;20.10;99.90;;;;;;4938411;29;20637;-95
2021/06/30 12:06:57;;;;;;;0.77;0.63;;;19.00;99.90;;;;;;4941306;29;20647;-94
2021/06/30 12:09:25;;;;;;;1.20;0.60;;;18.20;99.90;;;;;;4940959;29;20631;-94
2021/06/30 12:11:57;;;;;;;0.73;0.73;;;17.60;99.90;;;;;;4937750;29;20646;-95
2021/06/30 12:14:25;;;;;;;2.10;0.70;;;17.30;99.90;;;;;;4931816;29;20648;-95
2021/06/30 12:16:59;;;;;;;0.70;0.70;;;17.40;99.90;;;;;;4936556;29;20647;-95
2021/06/30 12:19:38;;;;;;;1.53;0.90;;;17.30;99.90;;;;;;4934637;29;20684;-93
2021/06/30 12:22:25;;;;;;;0.90;0.47;;;17.30;99.90;;;;;;4932281;29;20675;-96
2021/06/30 12:25:00;;;;;;;0.73;0.50;;;17.70;99.90;;;;;;4935753;29;20674;-96
2021/06/30 12:27:35;;;;;;;0.60;0.50;;;17.90;99.90;;;;;;4932240;29;20642;-95
2021/06/30 12:30:04;;;;;;;1.60;0.70;;;18.00;99.90;;;;;;4936926;29;20639;-94
2021/06/30 12:32:32;;;;;;;1.10;0.70;;;18.40;99.90;;;;;;4938046;29;20689;-96
2021/06/30 12:35:02;;;;;;;0.93;0.80;;;18.70;99.90;;;;;;4955388;29;20673;-96
2021/06/30 12:37:32;;;;;;;1.63;0.80;;;19.10;99.90;;;;;;4956674;29;20670;-96
2021/06/30 12:40:03;;;;;;;1.83;1.30;;;20.00;99.90;;;;;;4955884;29;20651;-96
2021/06/30 12:42:49;;;;;;;1.80;0.60;;;20.80;99.90;;;;;;4939606;29;20714;-95
2021/06/30 12:45:19;;;;;;;1.63;0.50;;;20.90;99.90;;;;;;4937918;29;20660;-95
2021/06/30 12:47:54;;;;;;;0.67;0.40;;;21.20;99.90;;;;;;4935858;29;20674;-94
2021/06/30 12:50:32;;;;;;;0.50;0.40;;;22.00;99.90;;;;;;4935659;29;21094;-94
2021/06/30 12:53:07;;;;;;;0.70;0.47;;;21.70;99.90;;;;;;4935637;29;20666;-94
2021/06/30 12:55:53;;;;;;;1.30;0.43;;;21.60;99.90;;;;;;4937667;29;20677;-94
2021/06/30 12:58:21;;;;;;;1.30;0.53;;;21.00;99.90;;;;;;4933493;29;20747;-93
2021/06/30 13:01:00;;;;;;;1.07;0.53;;;21.00;99.90;;;;;;4933266;29;20647;-94
2021/06/30 13:03:45;;;;;;;0.97;0.80;;;20.70;99.90;;;;;;4927191;29;20667;-94
2021/06/30 13:06:14;;;;;;;1.13;0.67;;;20.50;99.90;;;;;;4933486;29;20638;-95
2021/06/30 13:08:46;;;;;;;0.70;0.60;;;20.80;99.90;;;;;;4943489;29;21201;-95
2021/06/30 13:11:19;;;;;;;2.00;0.50;;;20.90;99.90;;;;;;4935579;29;21186;-94
2021/06/30 13:14:05;;;;;;;0.97;0.63;;;21.00;99.90;;;;;;4931409;29;20694;-95
2021/06/30 13:16:35;;;;;;;0.80;0.70;;;21.10;99.90;;;;;;4930398;29;20644;-95
2021/06/30 13:19:07;;;;;;;0.70;0.53;;;21.40;99.90;;;;;;4931258;29;20643;-94
2021/06/30 13:21:35;;;;;;;0.83;0.60;;;21.10;99.90;;;;;;4934931;29;20662;-94
2021/06/30 13:24:16;;;;;;;1.13;0.60;;;21.10;99.90;;;;;;4933725;29;20635;-94
2021/06/30 13:35:36;;;;;;;0.93;0.50;;;21.80;99.90;;;;;;4933502;29;20674;-93
2021/06/30 13:38:06;;;;;;;0.57;0.57;;;21.50;99.90;;;;;;4931251;29;20644;-94
2021/06/30 13:40:37;;;;;;;1.17;0.80;;;21.30;99.90;;;;;;4930234;29;21173;-95
2021/06/30 13:43:06;;;;;;;1.57;0.90;;;21.20;99.90;;;;;;4932275;29;20674;-93
2021/06/30 13:45:38;;;;;;;0.70;0.50;;;20.80;99.90;;;;;;4931213;29;20631;-94
2021/06/30 13:48:09;;;;;;;1.33;0.60;;;20.90;99.90;;;;;;4933440;29;21195;-95
2021/06/30 13:50:37;;;;;;;0.80;0.50;;;20.50;99.90;;;;;;4931089;29;20639;-93
2021/06/30 13:53:05;;;;;;;1.13;0.57;;;20.10;99.90;;;;;;4934563;29;20774;-93
2021/06/30 13:55:32;;;;;;;1.63;0.90;;;20.20;99.90;;;;;;4936173;29;20635;-93
2021/06/30 13:58:03;;;;;;;0.70;0.70;;;19.60;99.90;;;;;;4933480;29;20651;-95
2021/06/30 14:00:39;;;;;;;0.67;0.53;;;19.00;99.90;;;;;;4934261;29;20654;-96
2021/06/30 14:05:48;;;;;;;2.20;1.00;;;18.90;99.90;;;;;;4956023;28;20612;-95
2021/06/30 14:31:36;;;;;;;0.90;0.63;;;20.90;99.90;;;;;;5765443;23;20667;-96
2021/06/30 14:34:10;;;;;;;1.10;0.70;;;21.50;99.90;;;;;;4955626;29;20660;-95
2021/06/30 14:36:37;;;;;;;0.90;0.53;;;21.70;99.90;;;;;;4948310;29;20723;-95
2021/06/30 14:39:05;;;;;;;1.40;0.80;;;21.70;99.90;;;;;;4951851;29;20623;-95
2021/06/30 14:41:33;;;;;;;1.10;0.73;;;21.80;99.90;;;;;;4947422;29;20670;-95
2021/06/30 14:44:03;;;;;;;1.20;0.80;;;21.40;99.90;;;;;;4939443;29;20667;-95
2021/06/30 14:46:30;;;;;;;2.90;0.70;;;21.50;99.90;;;;;;4939494;29;20639;-94
2021/06/30 14:48:59;;;;;;;1.70;0.67;;;21.20;99.90;;;;;;4933119;29;20710;-94
2021/06/30 14:51:26;;;;;;;0.83;0.70;;;21.40;99.90;;;;;;4932951;29;20675;-95
2021/06/30 14:53:53;;;;;;;2.73;1.03;;;21.30;99.90;;;;;;4927937;29;20736;-94
2021/06/30 14:56:20;;;;;;;0.80;0.80;;;21.20;99.90;;;;;;4932689;29;20735;-94
2021/06/30 14:58:49;;;;;;;0.73;0.60;;;21.10;99.90;;;;;;4930812;29;20639;-96
2021/06/30 15:01:22;;;;;;;0.83;0.60;;;21.50;99.90;;;;;;4941649;29;20641;-96
2021/06/30 15:04:16;;;;;;;1.37;0.70;;;22.60;99.90;;;;;;4942050;29;20681;-96
2021/06/30 15:06:46;;;;;;;1.13;0.83;;;23.30;99.90;;;;;;4935039;29;20672;-96
2021/06/30 15:09:13;;;;;;;1.27;0.63;;;23.10;99.90;;;;;;4926456;29;20998;-95
2021/06/30 15:11:43;;;;;;;0.80;0.80;;;22.70;99.90;;;;;;4932457;29;20730;-94
2021/06/30 15:14:16;;;;;;;0.70;0.50;;;22.50;99.90;;;;;;4931593;29;20706;-93
2021/06/30 15:16:52;;;;;;;0.50;0.50;;;22.00;99.90;;;;;;4918470;29;20700;-95
2021/06/30 15:19:20;;;;;;;0.60;0.50;;;21.60;99.90;;;;;;4928054;29;20639;-93
2021/06/30 15:21:53;;;;;;;0.80;0.60;;;21.20;99.90;;;;;;4931977;29;20663;-94
2021/06/30 15:24:23;;;;;;;0.70;0.60;;;20.90;99.90;;;;;;4928894;29;20720;-94
2021/06/30 15:26:55;;;;;;;1.27;0.50;;;20.60;99.90;;;;;;4926485;29;20713;-95
2021/06/30 15:29:23;;;;;;;1.90;0.80;;;20.10;99.90;;;;;;4912861;29;20639;-93
2021/06/30 15:31:52;;;;;;;1.00;0.70;;;19.40;99.90;;;;;;4926079;29;20774;-96
2021/06/30 15:34:45;;;;;;;2.60;1.60;;;18.90;99.90;;;;;;4913382;29;20679;-95
2021/06/30 15:37:21;;;;;;;1.70;1.30;;;18.50;99.90;;;;;;4912062;29;20739;-94
2021/06/30 15:39:49;;;;;;;2.10;1.40;;;18.20;99.90;;;;;;4910125;29;20656;-95
2021/06/30 15:42:22;;;;;;;2.40;1.30;;;18.10;99.90;;;;;;4909427;29;20664;-93
2021/06/30 15:44:53;;;;;;;1.30;1.20;;;17.80;99.90;;;;;;4902954;29;20632;-93
2021/06/30 15:47:20;;;;;;;1.90;1.27;;;17.80;99.90;;;;;;4915945;29;21086;-93
2021/06/30 15:49:49;;;;;;;1.63;1.47;;;17.90;99.90;;;;;;4917490;29;20632;-93
2021/06/30 15:52:25;;;;;;;1.20;1.10;;;17.70;99.90;;;;;;4929123;29;20638;-95
2021/06/30 15:54:58;;;;;;;2.43;1.10;;;17.80;99.90;;;;;;4914221;29;20678;-95
2021/06/30 15:57:25;;;;;;;1.87;0.70;;;17.80;99.90;;;;;;4911609;29;20647;-94
2021/06/30 15:59:53;;;;;;;2.07;0.80;;;17.80;99.90;;;;;;4911398;29;20627;-94
2021/06/30 16:02:30;;;;;;;1.47;0.83;;;17.70;99.90;;;;;;4908461;29;20672;-93
2021/06/30 16:05:00;;;;;;;0.93;0.73;;;17.80;99.90;;;;;;4899650;29;20649;-94
2021/06/30 16:07:30;;;;;;;2.03;0.90;;;17.80;99.90;;;;;;4913926;29;20632;-94
2021/06/30 16:10:05;;;;;;;1.33;0.73;;;17.80;99.90;;;;;;4880130;29;20632;-95
2021/06/30 16:12:34;;;;;;;0.70;0.70;;;17.80;99.90;;;;;;4908258;29;22097;-95
2021/06/30 16:15:01;;;;;;;1.17;0.53;;;17.80;99.90;;;;;;4894887;29;20651;-95
2021/06/30 16:17:28;;;;;;;0.63;0.60;;;17.70;99.90;;;;;;4917186;29;20632;-96
2021/06/30 16:19:56;;;;;;;0.70;0.70;;;17.80;99.90;;;;;;4910530;29;20645;-94
2021/06/30 16:22:33;;;;;;;1.47;0.80;;;17.80;99.90;;;;;;4906715;29;20763;-94